createdAt,value
2019-05-18T20:36:58.770Z,18.30
2019-05-18T20:39:29.216Z,18.30
2019-05-18T20:41:59.692Z,18.30
2019-05-18T20:44:30.232Z,18.30
2019-05-18T20:47:02.716Z,18.30
2019-05-18T20:49:33.132Z,18.40
2019-05-18T20:52:03.622Z,18.40
2019-05-18T20:54:34.056Z,18.30
2019-05-18T20:57:04.559Z,18.10
2019-05-18T20:59:35.011Z,18.00
2019-05-18T21:02:05.853Z,17.80
2019-05-18T21:04:36.606Z,17.70
2019-05-18T21:07:07.202Z,17.80
2019-05-18T21:09:37.804Z,17.80
2019-05-18T21:12:08.301Z,17.90
2019-05-18T21:14:38.741Z,17.90
2019-05-18T21:17:09.794Z,17.90
2019-05-18T21:19:40.215Z,17.80
2019-05-18T21:22:10.699Z,17.60
2019-05-18T21:24:44.311Z,17.50
2019-05-18T21:27:14.827Z,17.50
2019-05-18T21:29:45.262Z,17.40
2019-05-18T21:32:15.917Z,17.40
2019-05-18T21:34:46.335Z,17.30
2019-05-18T21:37:16.793Z,17.10
2019-05-18T21:39:47.464Z,17.00
2019-05-18T21:42:19.751Z,16.90
2019-05-18T21:44:50.191Z,16.80
2019-05-18T21:47:20.728Z,16.80
2019-05-18T21:49:51.185Z,16.80
2019-05-18T21:52:21.839Z,16.70
2019-05-18T21:54:52.497Z,16.70
2019-05-18T21:57:23.215Z,16.70
2019-05-18T21:59:53.625Z,16.70
2019-05-18T22:02:24.053Z,16.70
2019-05-18T22:04:54.530Z,16.70
2019-05-18T22:07:25.195Z,16.70
2019-05-18T22:09:55.638Z,16.70
2019-05-18T22:12:26.071Z,16.70
2019-05-18T22:14:56.642Z,16.70
2019-05-18T22:17:27.053Z,16.70
2019-05-18T22:19:58.191Z,16.70
2019-05-18T22:22:28.591Z,16.70
2019-05-18T22:24:59.127Z,16.80
2019-05-18T22:27:29.532Z,16.80
2019-05-18T22:30:00.329Z,16.80
2019-05-18T22:32:30.883Z,16.70
2019-05-18T22:35:01.463Z,16.80
2019-05-18T22:37:31.883Z,16.80
2019-05-18T22:40:02.536Z,16.80
2019-05-18T22:42:32.956Z,16.70
2019-05-18T22:45:03.518Z,16.70
2019-05-18T22:47:33.895Z,16.60
2019-05-18T22:50:04.751Z,16.60
2019-05-18T22:52:35.176Z,16.50
2019-05-18T22:55:06.200Z,16.50
2019-05-18T22:57:36.607Z,16.50
2019-05-18T23:00:08.052Z,16.50
2019-05-18T23:02:38.576Z,16.60
2019-05-18T23:05:09.127Z,16.60
2019-05-18T23:07:39.727Z,16.60
2019-05-18T23:10:11.690Z,16.60
2019-05-18T23:12:42.082Z,16.60
2019-05-18T23:15:12.701Z,16.60
2019-05-18T23:17:43.196Z,16.50
2019-05-18T23:20:13.934Z,16.50
2019-05-18T23:22:44.397Z,16.40
2019-05-18T23:25:15.150Z,16.40
2019-05-18T23:27:45.581Z,16.40
2019-05-18T23:30:16.539Z,16.40
2019-05-18T23:32:46.909Z,16.40
2019-05-18T23:35:17.357Z,16.50
2019-05-18T23:37:47.976Z,16.40
2019-05-18T23:40:19.018Z,16.40
2019-05-18T23:42:49.563Z,16.40
2019-05-18T23:45:19.994Z,16.40
2019-05-18T23:47:50.421Z,16.30
2019-05-18T23:50:20.870Z,16.30
2019-05-18T23:52:51.275Z,16.40
2019-05-18T23:55:21.809Z,16.30
2019-05-18T23:57:52.246Z,16.40
